createdAt,value
2022-12-19T00:04:07.539Z,25.77
2022-12-19T00:09:29.766Z,24.67
2022-12-19T00:14:53.990Z,23.33
2022-12-19T00:20:18.724Z,25.30
2022-12-19T00:25:40.572Z,20.15
2022-12-19T00:31:04.404Z,23.17
2022-12-19T00:36:33.924Z,34.33
2022-12-19T00:41:55.698Z,20.88
2022-12-19T00:47:17.560Z,20.38
2022-12-19T00:52:39.354Z,16.73
2022-12-19T00:58:01.142Z,22.10
2022-12-19T01:03:23.556Z,16.17
2022-12-19T01:08:45.510Z,17.38
2022-12-19T01:14:07.346Z,21.00
2022-12-19T01:19:29.282Z,22.63
2022-12-19T01:24:51.175Z,20.70
2022-12-19T01:30:13.287Z,21.27
2022-12-19T01:35:36.388Z,21.40
2022-12-19T01:40:58.292Z,22.42
2022-12-19T01:46:43.571Z,17.42
2022-12-19T01:52:08.902Z,20.67
2022-12-19T01:57:33.747Z,20.98
2022-12-19T02:03:27.851Z,21.10
2022-12-19T02:08:51.156Z,26.33
2022-12-19T02:14:13.223Z,25.15
2022-12-19T02:20:03.033Z,24.88
2022-12-19T02:25:43.701Z,30.45
2022-12-19T02:31:08.184Z,27.95
2022-12-19T02:36:50.810Z,24.45
2022-12-19T02:42:25.158Z,31.08
2022-12-19T02:47:49.570Z,28.75
2022-12-19T02:53:13.369Z,29.73
2022-12-19T02:58:56.524Z,32.97
2022-12-19T03:04:30.505Z,29.45
2022-12-19T03:09:56.784Z,27.65
2022-12-19T03:15:19.995Z,29.80
2022-12-19T03:20:51.977Z,32.47
2022-12-19T03:26:22.568Z,31.08
2022-12-19T03:31:46.363Z,33.45
2022-12-19T03:37:14.376Z,30.13
2022-12-19T03:42:39.608Z,27.00
2022-12-19T03:48:09.983Z,27.67
2022-12-19T03:53:34.486Z,29.48
2022-12-19T03:59:04.836Z,36.30
2022-12-19T04:04:27.372Z,24.45
2022-12-19T04:09:50.645Z,30.70
2022-12-19T04:15:12.980Z,35.25
2022-12-19T04:20:38.114Z,40.13
2022-12-19T04:26:03.411Z,29.60
2022-12-19T04:31:25.419Z,38.20
2022-12-19T04:36:48.953Z,38.15
2022-12-19T04:42:10.889Z,34.10
2022-12-19T04:47:32.791Z,25.50
2022-12-19T04:52:57.210Z,34.05
2022-12-19T04:58:22.023Z,35.35
2022-12-19T05:03:44.169Z,36.43
2022-12-19T05:09:06.167Z,34.92
2022-12-19T05:14:28.017Z,30.35
2022-12-19T05:19:49.836Z,36.28
2022-12-19T05:25:11.634Z,41.35
2022-12-19T05:30:33.432Z,29.63
2022-12-19T05:35:55.261Z,29.65
2022-12-19T05:41:19.641Z,32.97
2022-12-19T05:46:41.548Z,37.22
2022-12-19T05:52:03.480Z,34.72
2022-12-19T05:57:25.447Z,34.45
2022-12-19T06:02:47.410Z,24.40
2022-12-19T06:08:09.265Z,38.55
2022-12-19T06:13:32.142Z,34.53
2022-12-19T06:18:54.669Z,35.15
2022-12-19T06:24:16.891Z,37.42
2022-12-19T06:29:38.696Z,32.88
2022-12-19T06:35:04.572Z,37.35
2022-12-19T06:40:26.831Z,34.47
2022-12-19T06:45:49.017Z,33.20
2022-12-19T06:51:10.857Z,36.05
2022-12-19T06:56:36.786Z,33.97
2022-12-19T07:02:18.473Z,34.83
2022-12-19T07:07:40.396Z,42.75
2022-12-19T07:13:02.269Z,43.10
2022-12-19T07:18:24.184Z,39.03
2022-12-19T07:23:46.337Z,32.42
2022-12-19T07:29:10.477Z,30.48
2022-12-19T07:34:33.750Z,33.63
2022-12-19T07:39:55.599Z,33.17
2022-12-19T07:45:17.469Z,37.65
2022-12-19T07:50:39.317Z,37.47
2022-12-19T07:56:01.088Z,38.35
2022-12-19T08:01:23.085Z,37.05
2022-12-19T08:06:45.013Z,35.28
2022-12-19T08:12:07.182Z,34.00
2022-12-19T08:17:29.084Z,37.88
2022-12-19T08:22:50.940Z,38.28
2022-12-19T08:28:12.803Z,35.28
2022-12-19T08:33:35.011Z,39.28
2022-12-19T08:38:56.860Z,31.77
2022-12-19T08:44:18.901Z,34.78
2022-12-19T08:49:40.776Z,39.17
2022-12-19T08:55:02.826Z,36.60
2022-12-19T09:00:24.835Z,39.10
2022-12-19T09:06:03.880Z,33.10
2022-12-19T09:11:28.773Z,34.15
2022-12-19T09:16:50.934Z,33.08
2022-12-19T09:22:12.901Z,34.20
2022-12-19T09:28:01.354Z,33.58
2022-12-19T09:33:16.527Z,33.38
2022-12-19T09:38:38.394Z,30.13
2022-12-19T09:44:15.635Z,29.58
2022-12-19T09:49:43.172Z,48.92
2022-12-19T09:55:24.156Z,28.17
2022-12-19T10:00:59.546Z,30.45
2022-12-19T10:07:12.934Z,26.92
2022-12-19T10:12:45.911Z,33.55
2022-12-19T10:18:13.058Z,31.35
2022-12-19T10:24:06.183Z,30.95
2022-12-19T10:29:50.037Z,33.53
2022-12-19T10:35:14.559Z,34.67
2022-12-19T10:40:49.197Z,27.52
2022-12-19T10:46:17.411Z,30.25
2022-12-19T10:51:39.707Z,26.45
2022-12-19T10:57:27.206Z,31.67
2022-12-19T11:02:51.908Z,27.40
2022-12-19T11:08:20.957Z,29.95
2022-12-19T11:18:35.186Z,33.08
2022-12-19T11:29:41.907Z,31.92
2022-12-19T11:30:59.587Z,34.60
2022-12-19T11:37:06.804Z,30.88
2022-12-19T11:42:37.283Z,30.85
2022-12-19T11:48:08.885Z,33.00
2022-12-19T11:53:40.913Z,29.70
2022-12-19T11:59:18.702Z,31.38
2022-12-19T12:05:08.120Z,33.05
2022-12-19T12:15:06.897Z,26.83
2022-12-19T12:28:01.879Z,28.85
2022-12-19T12:31:07.145Z,30.17
2022-12-19T12:31:42.621Z,28.30
2022-12-19T12:35:46.563Z,34.83
2022-12-19T12:40:58.509Z,30.10
2022-12-19T12:46:26.230Z,31.23
2022-12-19T12:51:49.119Z,32.25
2022-12-19T12:57:39.989Z,32.75
2022-12-19T13:03:07.116Z,29.67
2022-12-19T13:08:38.034Z,33.58
2022-12-19T13:14:00.744Z,33.65
2022-12-19T13:19:29.090Z,29.77
2022-12-19T13:24:53.229Z,28.95
2022-12-19T13:30:16.735Z,34.70
2022-12-19T13:39:04.835Z,34.90
2022-12-19T13:41:39.660Z,29.95
2022-12-19T13:47:01.510Z,30.85
2022-12-19T13:52:23.324Z,37.38
2022-12-19T13:57:53.580Z,34.58
2022-12-19T14:03:20.953Z,37.28
2022-12-19T14:08:45.733Z,36.92
2022-12-19T14:14:25.534Z,34.90
2022-12-19T14:19:52.635Z,31.13
2022-12-19T14:28:15.783Z,30.35
2022-12-19T14:31:25.908Z,39.58
2022-12-19T14:36:52.478Z,36.25
2022-12-19T14:42:16.685Z,32.10
2022-12-19T14:54:04.969Z,45.10
2022-12-19T14:54:22.085Z,33.63
2022-12-19T14:59:05.708Z,38.00
2022-12-19T15:04:53.009Z,35.38
2022-12-19T15:11:05.552Z,38.22
2022-12-19T15:16:02.318Z,40.17
2022-12-19T15:21:24.808Z,33.38
2022-12-19T15:26:50.218Z,33.97
2022-12-19T15:32:16.430Z,44.75
2022-12-19T15:37:38.291Z,42.60
2022-12-19T15:43:00.617Z,43.63
2022-12-19T15:48:22.581Z,36.67
2022-12-19T15:53:44.469Z,42.25
2022-12-19T15:59:21.501Z,42.08
2022-12-19T16:04:44.515Z,44.75
2022-12-19T16:10:07.370Z,41.40
2022-12-19T16:15:31.949Z,40.63
2022-12-19T16:20:55.773Z,41.95
2022-12-19T16:26:33.654Z,39.22
2022-12-19T16:31:55.913Z,42.08
2022-12-19T16:37:17.908Z,35.65
2022-12-19T16:42:39.790Z,42.33
2022-12-19T16:48:01.576Z,45.33
2022-12-19T16:53:23.542Z,44.28
2022-12-19T16:58:45.412Z,41.63
2022-12-19T17:04:07.228Z,41.83
2022-12-19T17:09:29.062Z,45.20
2022-12-19T17:14:50.928Z,46.55
2022-12-19T17:20:21.403Z,43.50
2022-12-19T17:25:43.811Z,40.47
2022-12-19T17:31:24.157Z,40.80
2022-12-19T17:36:46.254Z,45.08
2022-12-19T17:42:18.435Z,40.67
2022-12-19T17:47:40.608Z,44.20
2022-12-19T17:53:02.480Z,45.00
2022-12-19T17:58:24.347Z,42.72
2022-12-19T18:03:47.296Z,42.22
2022-12-19T18:09:24.096Z,43.78
2022-12-19T18:14:46.011Z,44.05
2022-12-19T18:20:32.034Z,44.80
2022-12-19T18:26:00.925Z,46.30
2022-12-19T18:31:25.826Z,41.28
2022-12-19T18:36:48.530Z,44.35
2022-12-19T18:42:20.635Z,46.17
2022-12-19T18:47:49.735Z,43.42
2022-12-19T18:53:15.747Z,48.10
2022-12-19T18:58:37.765Z,54.08
2022-12-19T19:03:59.732Z,44.10
2022-12-19T19:09:21.869Z,41.92
2022-12-19T19:14:44.296Z,45.25
2022-12-19T19:20:06.974Z,47.25
2022-12-19T19:25:28.805Z,47.55
2022-12-19T19:30:52.141Z,45.13
2022-12-19T19:36:23.076Z,41.03
2022-12-19T19:41:44.938Z,53.00
2022-12-19T19:47:06.919Z,50.17
2022-12-19T19:52:28.745Z,43.50
2022-12-19T19:57:50.695Z,49.97
2022-12-19T20:03:18.562Z,54.88
2022-12-19T20:08:44.197Z,48.67
2022-12-19T20:14:06.061Z,50.40
2022-12-19T20:19:27.985Z,46.15
2022-12-19T20:24:49.852Z,52.80
2022-12-19T20:30:12.086Z,52.65
2022-12-19T20:35:33.926Z,57.45
2022-12-19T20:40:55.776Z,45.35
2022-12-19T20:46:20.272Z,51.92
2022-12-19T20:51:42.215Z,50.05
2022-12-19T20:57:04.000Z,47.17
2022-12-19T21:02:25.937Z,44.30
2022-12-19T21:07:47.828Z,49.28
2022-12-19T21:13:09.638Z,49.22
2022-12-19T21:18:31.544Z,52.58
2022-12-19T21:23:54.904Z,51.50
2022-12-19T21:29:16.757Z,52.03
2022-12-19T21:34:38.603Z,44.33
2022-12-19T21:40:00.506Z,50.80
2022-12-19T21:45:22.319Z,46.63
2022-12-19T21:50:44.213Z,42.28
2022-12-19T21:56:12.268Z,48.08
2022-12-19T22:01:34.282Z,50.58
2022-12-19T22:06:56.267Z,48.55
2022-12-19T22:12:18.126Z,50.00
2022-12-19T22:17:39.948Z,48.83
2022-12-19T22:23:01.773Z,47.58
2022-12-19T22:28:23.609Z,49.25
2022-12-19T22:33:46.442Z,48.88
2022-12-19T22:39:13.573Z,49.00
2022-12-19T22:44:35.469Z,53.50
2022-12-19T22:49:57.420Z,49.72
2022-12-19T22:55:19.312Z,45.22
2022-12-19T23:00:42.244Z,51.05
2022-12-19T23:06:04.221Z,40.95
2022-12-19T23:11:33.187Z,47.20
2022-12-19T23:16:55.139Z,41.65
2022-12-19T23:22:17.043Z,44.47
2022-12-19T23:27:40.386Z,45.17
2022-12-19T23:33:02.382Z,41.40
2022-12-19T23:38:24.219Z,42.45
2022-12-19T23:43:46.160Z,46.97
2022-12-19T23:49:08.173Z,45.80
2022-12-19T23:54:30.273Z,45.88
2022-12-19T23:59:52.172Z,41.72
